createdAt,value
2018-12-01T00:01:16.675Z,17.45
2018-12-01T00:03:45.310Z,17.44
2018-12-01T00:06:14.035Z,17.39
2018-12-01T00:08:43.069Z,17.38
2018-12-01T00:11:11.671Z,17.38
2018-12-01T00:13:40.331Z,17.36
2018-12-01T00:16:09.074Z,17.37
2018-12-01T00:18:37.613Z,17.28
2018-12-01T00:21:06.504Z,17.32
2018-12-01T00:23:35.494Z,17.29
2018-12-01T00:26:03.889Z,17.27
2018-12-01T00:28:32.419Z,17.23
2018-12-01T00:31:00.911Z,17.24
2018-12-01T00:33:29.900Z,17.23
2018-12-01T00:35:58.832Z,17.21
2018-12-01T00:38:27.721Z,17.22
2018-12-01T00:40:56.273Z,17.17
2018-12-01T00:43:24.972Z,17.17
2018-12-01T00:45:53.580Z,17.17
2018-12-01T00:48:22.795Z,17.15
2018-12-01T00:50:51.204Z,17.14
2018-12-01T00:53:19.853Z,17.08
2018-12-01T00:55:48.945Z,17.07
2018-12-01T00:58:17.759Z,17.09
2018-12-01T01:00:46.338Z,17.05
2018-12-01T01:03:15.414Z,17.05
2018-12-01T01:05:43.973Z,17.01
2018-12-01T01:08:12.507Z,17.04
2018-12-01T01:10:41.587Z,17.04
2018-12-01T01:13:10.327Z,17.02
2018-12-01T01:15:39.260Z,17.00
2018-12-01T01:18:08.307Z,17.00
2018-12-01T01:20:37.075Z,16.92
2018-12-01T01:23:05.747Z,16.95
2018-12-01T01:25:34.196Z,16.94
2018-12-01T01:28:02.789Z,16.94
2018-12-01T01:30:31.304Z,16.93
2018-12-01T01:33:04.954Z,16.95
2018-12-01T01:35:33.406Z,16.95
2018-12-01T01:38:01.996Z,16.96
2018-12-01T01:40:30.524Z,16.97
2018-12-01T01:42:59.380Z,16.96
2018-12-01T01:45:28.085Z,16.96
2018-12-01T01:47:56.851Z,16.95
2018-12-01T01:50:25.740Z,16.95
2018-12-01T01:52:54.600Z,16.92
2018-12-01T01:55:23.414Z,16.93
2018-12-01T01:57:51.913Z,16.94
2018-12-01T02:00:21.428Z,16.90
2018-12-01T02:02:51.488Z,16.89
2018-12-01T02:05:20.671Z,16.89
2018-12-01T02:07:49.127Z,16.87
2018-12-01T02:10:18.000Z,16.89
2018-12-01T02:12:46.640Z,16.87
2018-12-01T02:15:15.344Z,16.89
2018-12-01T02:17:44.312Z,16.86
2018-12-01T02:20:13.343Z,16.87
2018-12-01T02:22:41.911Z,16.86
2018-12-01T02:25:11.080Z,16.83
2018-12-01T02:27:39.657Z,16.82
2018-12-01T02:30:09.459Z,16.82
2018-12-01T02:32:38.044Z,16.81
2018-12-01T02:35:08.536Z,16.82
2018-12-01T02:37:37.126Z,16.77
2018-12-01T02:40:07.095Z,16.76
2018-12-01T02:42:35.580Z,16.79
2018-12-01T02:45:10.203Z,16.74
2018-12-01T02:47:38.600Z,16.76
2018-12-01T02:50:11.383Z,16.74
2018-12-01T02:52:39.935Z,16.74
2018-12-01T02:55:08.372Z,16.75
2018-12-01T02:57:36.909Z,16.75
2018-12-01T03:00:07.784Z,16.75
2018-12-01T03:02:36.461Z,16.77
2018-12-01T03:05:05.222Z,16.77
2018-12-01T03:07:33.688Z,16.78
2018-12-01T03:10:02.380Z,16.78
2018-12-01T03:12:30.834Z,16.78
2018-12-01T03:14:59.548Z,16.78
2018-12-01T03:17:28.091Z,16.78
2018-12-01T03:19:57.698Z,16.78
2018-12-01T03:22:27.388Z,16.78
2018-12-01T03:24:56.074Z,16.78
2018-12-01T03:27:25.681Z,16.76
2018-12-01T03:29:55.176Z,16.77
2018-12-01T03:32:23.672Z,16.79
2018-12-01T03:34:52.091Z,16.76
2018-12-01T03:37:20.592Z,16.76
2018-12-01T03:39:49.309Z,16.76
2018-12-01T03:42:17.916Z,16.74
2018-12-01T03:44:46.635Z,16.76
2018-12-01T03:47:15.300Z,16.74
2018-12-01T03:49:44.064Z,16.73
2018-12-01T03:52:13.008Z,16.76
2018-12-01T03:54:41.992Z,16.75
2018-12-01T03:57:10.629Z,16.78
2018-12-01T03:59:39.398Z,16.80
2018-12-01T04:02:08.207Z,16.81
2018-12-01T04:04:37.344Z,16.79
2018-12-01T04:07:06.214Z,16.79
2018-12-01T04:11:53.773Z,16.79
2018-12-01T04:14:22.868Z,16.80
2018-12-01T04:16:51.568Z,16.79
2018-12-01T04:19:20.019Z,16.77
2018-12-01T04:21:48.810Z,16.80
2018-12-01T04:24:17.909Z,16.79
2018-12-01T04:26:46.680Z,16.79
2018-12-01T04:29:15.387Z,16.75
2018-12-01T04:31:44.175Z,16.76
2018-12-01T04:34:13.270Z,16.76
2018-12-01T04:36:42.144Z,16.75
2018-12-01T04:39:10.594Z,16.76
2018-12-01T04:41:39.667Z,16.76
2018-12-01T04:44:08.327Z,16.73
2018-12-01T04:46:37.014Z,16.78
2018-12-01T04:49:05.510Z,16.77
2018-12-01T04:51:34.481Z,16.78
2018-12-01T04:54:03.432Z,16.78
2018-12-01T04:58:20.107Z,16.76
2018-12-01T05:00:48.751Z,16.78
2018-12-01T05:03:18.007Z,16.78
2018-12-01T05:05:46.612Z,16.79
2018-12-01T05:08:15.232Z,16.77
2018-12-01T05:10:43.766Z,16.77
2018-12-01T05:13:13.084Z,16.75
2018-12-01T05:15:41.814Z,16.74
2018-12-01T05:18:10.378Z,16.72
2018-12-01T05:20:39.240Z,16.71
2018-12-01T05:23:07.794Z,16.69
2018-12-01T05:25:37.127Z,16.70
2018-12-01T05:28:05.843Z,16.68
2018-12-01T05:32:18.485Z,16.68
2018-12-01T05:34:47.049Z,16.68
2018-12-01T05:37:15.678Z,16.65
2018-12-01T05:39:44.734Z,16.60
2018-12-01T05:42:13.539Z,16.60
2018-12-01T05:44:42.310Z,16.60
2018-12-01T05:47:10.839Z,16.63
2018-12-01T05:49:39.845Z,16.63
2018-12-01T05:52:08.786Z,16.66
2018-12-01T05:54:37.513Z,16.68
2018-12-01T05:57:06.183Z,16.71
2018-12-01T05:59:35.360Z,16.77
2018-12-01T06:02:03.877Z,16.80
2018-12-01T06:04:32.542Z,16.86
2018-12-01T06:07:01.015Z,16.88
2018-12-01T06:09:29.690Z,16.89
2018-12-01T06:11:58.744Z,16.91
2018-12-01T06:14:27.379Z,16.96
2018-12-01T06:16:55.920Z,16.95
2018-12-01T06:19:25.075Z,17.01
2018-12-01T06:21:54.215Z,17.02
2018-12-01T06:24:22.879Z,17.03
2018-12-01T06:26:51.752Z,17.08
2018-12-01T06:29:20.847Z,17.08
2018-12-01T06:31:49.439Z,17.10
2018-12-01T06:34:18.110Z,17.18
2018-12-01T06:38:25.101Z,17.19
2018-12-01T06:40:53.717Z,17.22
2018-12-01T06:43:22.336Z,17.27
2018-12-01T06:45:51.432Z,17.29
2018-12-01T06:48:20.274Z,17.28
2018-12-01T06:50:48.972Z,17.31
2018-12-01T06:53:17.536Z,17.35
2018-12-01T06:55:46.186Z,17.39
2018-12-01T06:59:30.918Z,17.40
2018-12-01T07:02:00.813Z,17.43
2018-12-01T07:04:29.507Z,17.43
2018-12-01T07:06:58.185Z,17.46
2018-12-01T07:09:26.998Z,17.47
2018-12-01T07:11:55.903Z,17.50
2018-12-01T07:14:25.124Z,17.49
2018-12-01T07:16:53.865Z,17.53
2018-12-01T07:19:22.724Z,17.52
2018-12-01T07:21:51.921Z,17.53
2018-12-01T07:24:21.585Z,17.57
2018-12-01T07:26:50.269Z,17.57
2018-12-01T07:29:18.959Z,17.58
2018-12-01T07:31:48.031Z,17.57
2018-12-01T07:34:17.200Z,17.57
2018-12-01T07:36:46.212Z,17.60
2018-12-01T07:39:15.046Z,17.61
2018-12-01T07:41:44.078Z,17.63
2018-12-01T07:44:13.515Z,17.62
2018-12-01T07:46:42.430Z,17.65
2018-12-01T07:49:11.061Z,17.60
2018-12-01T07:51:39.998Z,17.57
2018-12-01T07:54:09.195Z,17.64
2018-12-01T07:56:37.819Z,17.66
2018-12-01T07:59:06.895Z,17.62
2018-12-01T08:01:37.705Z,17.70
2018-12-01T08:04:09.978Z,17.68
2018-12-01T08:06:38.666Z,17.69
2018-12-01T08:09:08.404Z,17.70
2018-12-01T08:11:37.264Z,17.70
2018-12-01T08:14:05.839Z,17.70
2018-12-01T08:16:34.536Z,17.73
2018-12-01T08:19:04.373Z,17.74
2018-12-01T08:21:33.249Z,17.74
2018-12-01T08:24:02.358Z,17.77
2018-12-01T08:26:32.786Z,17.80
2018-12-01T08:29:01.767Z,17.81
2018-12-01T08:31:30.788Z,17.82
2018-12-01T08:34:00.193Z,17.79
2018-12-01T08:36:28.828Z,17.78
2018-12-01T08:38:57.456Z,17.76
2018-12-01T08:41:26.657Z,17.76
2018-12-01T08:43:55.229Z,17.80
2018-12-01T08:46:26.146Z,17.74
2018-12-01T08:48:57.547Z,17.77
2018-12-01T08:51:27.388Z,17.71
2018-12-01T08:53:56.195Z,17.76
2018-12-01T08:56:25.011Z,17.76
2018-12-01T08:58:53.787Z,17.76
2018-12-01T09:01:22.283Z,17.76
2018-12-01T09:05:42.801Z,17.81
2018-12-01T09:08:11.895Z,17.77
2018-12-01T09:10:40.397Z,17.80
2018-12-01T09:13:09.027Z,17.70
2018-12-01T09:15:38.466Z,17.70
2018-12-01T09:18:07.011Z,17.71
2018-12-01T09:20:35.691Z,17.72
2018-12-01T09:23:05.123Z,17.75
2018-12-01T09:25:33.729Z,17.75
2018-12-01T09:28:02.311Z,17.77
2018-12-01T09:30:33.044Z,17.74
2018-12-01T09:33:01.540Z,17.73
2018-12-01T09:35:30.925Z,17.74
2018-12-01T09:37:59.701Z,17.72
2018-12-01T09:40:28.650Z,17.69
2018-12-01T09:42:57.747Z,17.68
2018-12-01T09:45:26.270Z,17.70
2018-12-01T09:50:28.268Z,17.68
2018-12-01T09:53:40.075Z,17.70
2018-12-01T09:56:09.144Z,17.65
2018-12-01T09:58:37.735Z,17.71
2018-12-01T10:01:07.103Z,17.70
2018-12-01T10:03:36.136Z,17.67
2018-12-01T10:06:04.690Z,17.69
2018-12-01T10:08:33.182Z,17.70
2018-12-01T10:11:02.722Z,17.70
2018-12-01T10:13:31.379Z,17.69
2018-12-01T10:16:00.235Z,17.70
2018-12-01T10:18:28.979Z,17.66
2018-12-01T10:20:57.591Z,17.65
2018-12-01T10:23:26.322Z,17.66
2018-12-01T10:25:55.250Z,17.69
2018-12-01T10:28:25.151Z,17.68
2018-12-01T10:30:53.619Z,17.67
2018-12-01T10:33:23.611Z,17.67
2018-12-01T10:35:52.443Z,17.66
2018-12-01T10:38:21.569Z,17.67
2018-12-01T10:40:50.456Z,17.63
2018-12-01T10:43:19.501Z,17.62
2018-12-01T10:45:48.237Z,17.67
2018-12-01T10:48:18.555Z,17.67
2018-12-01T10:50:47.748Z,17.67
2018-12-01T10:53:16.305Z,17.68
2018-12-01T10:55:45.575Z,17.71
2018-12-01T10:58:15.799Z,17.71
2018-12-01T11:00:52.755Z,17.68
2018-12-01T11:03:26.752Z,17.65
2018-12-01T11:05:56.078Z,17.67
2018-12-01T11:08:25.079Z,17.68
2018-12-01T11:10:55.309Z,17.74
2018-12-01T11:13:22.739Z,17.78
2018-12-01T11:15:51.774Z,17.79
2018-12-01T11:18:20.835Z,17.77
2018-12-01T11:20:49.215Z,17.84
2018-12-01T11:23:18.357Z,17.83
2018-12-01T11:25:47.102Z,17.87
2018-12-01T11:28:16.719Z,17.85
2018-12-01T11:30:45.295Z,17.80
2018-12-01T11:33:13.820Z,17.74
2018-12-01T11:35:42.252Z,17.79
2018-12-01T11:38:11.055Z,17.81
2018-12-01T11:40:39.503Z,17.85
2018-12-01T11:43:08.622Z,17.86
2018-12-01T11:45:37.205Z,17.81
2018-12-01T11:48:06.290Z,17.86
2018-12-01T11:50:35.911Z,17.86
2018-12-01T11:53:04.789Z,17.84
2018-12-01T11:55:33.327Z,17.81
2018-12-01T11:58:02.944Z,17.84
2018-12-01T12:00:35.787Z,17.88
2018-12-01T12:03:04.301Z,17.87
2018-12-01T12:05:32.714Z,17.87
2018-12-01T12:08:06.902Z,17.94
2018-12-01T12:10:35.648Z,17.92
2018-12-01T12:13:04.440Z,17.93
2018-12-01T12:15:33.024Z,17.93
2018-12-01T12:18:02.690Z,17.97
2018-12-01T12:20:31.624Z,18.01
2018-12-01T12:23:00.347Z,18.00
2018-12-01T12:25:29.383Z,17.97
2018-12-01T12:27:58.711Z,17.94
2018-12-01T12:30:27.611Z,17.94
2018-12-01T12:32:56.331Z,18.02
2018-12-01T12:35:24.795Z,17.99
2018-12-01T12:37:53.455Z,18.06
2018-12-01T12:40:23.642Z,18.04
2018-12-01T12:42:52.989Z,18.02
2018-12-01T12:45:21.672Z,18.06
2018-12-01T12:47:50.350Z,18.10
2018-12-01T12:50:20.226Z,18.10
2018-12-01T12:52:49.239Z,18.10
2018-12-01T12:55:19.097Z,18.09
2018-12-01T12:57:47.569Z,18.12
2018-12-01T13:00:23.342Z,18.13
2018-12-01T13:02:55.698Z,18.13
2018-12-01T13:05:25.510Z,18.16
2018-12-01T13:07:54.617Z,18.15
2018-12-01T13:10:23.981Z,18.17
2018-12-01T13:12:52.492Z,18.20
2018-12-01T13:15:21.194Z,18.15
2018-12-01T13:17:49.758Z,18.17
2018-12-01T13:20:21.187Z,18.19
2018-12-01T13:22:52.211Z,18.19
2018-12-01T13:25:21.658Z,18.15
2018-12-01T13:27:52.200Z,18.16
2018-12-01T13:31:11.930Z,18.15
2018-12-01T13:33:41.445Z,18.14
2018-12-01T13:36:09.951Z,18.09
2018-12-01T13:38:38.546Z,18.13
2018-12-01T13:41:07.176Z,18.12
2018-12-01T13:43:35.903Z,18.11
2018-12-01T13:46:04.633Z,18.13
2018-12-01T13:48:32.979Z,18.10
2018-12-01T13:51:01.812Z,18.13
2018-12-01T13:53:31.049Z,18.14
2018-12-01T13:56:00.060Z,18.07
2018-12-01T13:58:28.659Z,18.08
2018-12-01T14:02:58.103Z,18.07
2018-12-01T14:05:27.250Z,18.08
2018-12-01T14:08:08.270Z,18.04
2018-12-01T14:10:38.129Z,18.06
2018-12-01T14:13:09.066Z,18.02
2018-12-01T14:16:01.242Z,18.03
2018-12-01T14:18:29.825Z,17.98
2018-12-01T14:20:59.107Z,18.01
2018-12-01T14:23:27.791Z,17.99
2018-12-01T14:25:56.442Z,17.99
2018-12-01T14:28:25.392Z,18.01
2018-12-01T14:30:54.081Z,18.03
2018-12-01T14:33:22.608Z,18.00
2018-12-01T14:35:51.477Z,17.97
2018-12-01T14:38:20.348Z,17.94
2018-12-01T14:40:49.649Z,17.94
2018-12-01T14:43:18.332Z,17.85
2018-12-01T14:45:47.850Z,17.93
2018-12-01T14:50:28.432Z,17.93
2018-12-01T14:52:57.421Z,18.07
2018-12-01T14:55:26.168Z,18.00
2018-12-01T14:57:55.280Z,17.98
2018-12-01T15:00:24.322Z,18.01
2018-12-01T15:04:31.585Z,17.99
2018-12-01T15:07:00.015Z,18.01
2018-12-01T15:09:28.765Z,17.94
2018-12-01T15:11:57.631Z,17.99
2018-12-01T15:14:26.830Z,17.93
2018-12-01T15:16:55.475Z,17.94
2018-12-01T15:19:24.504Z,17.91
2018-12-01T15:21:53.591Z,17.89
2018-12-01T15:25:10.746Z,17.93
2018-12-01T15:27:39.793Z,17.94
2018-12-01T15:30:11.380Z,17.94
2018-12-01T15:32:40.311Z,17.97
2018-12-01T15:35:10.757Z,17.98
2018-12-01T15:40:16.198Z,17.90
2018-12-01T15:42:44.877Z,17.94
2018-12-01T15:45:15.613Z,17.95
2018-12-01T15:47:44.707Z,17.93
2018-12-01T15:50:15.535Z,17.93
2018-12-01T15:52:44.739Z,17.88
2018-12-01T15:55:13.611Z,17.88
2018-12-01T15:57:42.431Z,17.89
2018-12-01T16:00:14.855Z,17.88
2018-12-01T16:03:43.195Z,17.87
2018-12-01T16:06:45.771Z,17.88
2018-12-01T16:09:14.742Z,17.89
2018-12-01T16:11:44.602Z,17.86
2018-12-01T16:14:14.592Z,17.84
2018-12-01T16:16:44.160Z,17.84
2018-12-01T16:19:14.354Z,17.78
2018-12-01T16:21:44.165Z,17.81
2018-12-01T16:24:14.893Z,17.79
2018-12-01T16:26:54.510Z,17.78
2018-12-01T16:29:24.140Z,17.74
2018-12-01T16:31:54.137Z,17.77
2018-12-01T16:34:23.553Z,17.74
2018-12-01T16:36:52.530Z,17.74
2018-12-01T16:39:24.021Z,17.72
2018-12-01T16:41:59.301Z,17.70
2018-12-01T16:44:28.449Z,17.72
2018-12-01T16:46:57.142Z,17.70
2018-12-01T16:49:26.047Z,17.70
2018-12-01T16:51:55.213Z,17.74
2018-12-01T16:54:28.527Z,17.68
2018-12-01T16:56:57.558Z,17.66
2018-12-01T16:59:26.666Z,17.66
2018-12-01T17:01:55.823Z,17.57
2018-12-01T17:04:24.890Z,17.65
2018-12-01T17:06:54.519Z,17.64
2018-12-01T17:09:23.269Z,17.58
2018-12-01T17:11:52.263Z,17.64
2018-12-01T17:14:21.737Z,17.58
2018-12-01T17:16:50.728Z,17.61
2018-12-01T17:19:19.591Z,17.57
2018-12-01T17:21:48.704Z,17.58
2018-12-01T17:24:18.324Z,17.55
2018-12-01T17:26:48.823Z,17.61
2018-12-01T17:29:18.355Z,17.57
2018-12-01T17:31:48.364Z,17.54
2018-12-01T17:34:17.152Z,17.46
2018-12-01T17:36:45.857Z,17.54
2018-12-01T17:39:14.635Z,17.56
2018-12-01T17:41:44.579Z,17.54
2018-12-01T17:44:14.204Z,17.54
2018-12-01T17:46:45.177Z,17.55
2018-12-01T17:49:14.303Z,17.49
2018-12-01T17:51:43.347Z,17.43
2018-12-01T17:54:13.684Z,17.47
2018-12-01T17:56:43.812Z,17.48
2018-12-01T17:59:13.091Z,17.49
2018-12-01T18:01:42.920Z,17.49
2018-12-01T18:04:11.614Z,17.48
2018-12-01T18:06:40.963Z,17.49
2018-12-01T18:09:09.867Z,17.47
2018-12-01T18:11:39.191Z,17.45
2018-12-01T18:14:08.873Z,17.43
2018-12-01T18:16:38.992Z,17.45
2018-12-01T18:19:08.245Z,17.44
2018-12-01T18:21:37.606Z,17.44
2018-12-01T18:24:06.299Z,17.44
2018-12-01T18:26:55.746Z,17.47
2018-12-01T18:29:26.113Z,17.42
2018-12-01T18:31:58.484Z,17.42
2018-12-01T18:34:28.207Z,17.44
2018-12-01T18:36:57.566Z,17.45
2018-12-01T18:39:26.734Z,17.44
2018-12-01T18:41:55.807Z,17.43
2018-12-01T18:44:25.253Z,17.44
2018-12-01T18:46:55.813Z,17.42
2018-12-01T18:49:24.626Z,17.40
2018-12-01T18:51:53.379Z,17.44
2018-12-01T18:54:23.208Z,17.45
2018-12-01T18:56:54.782Z,17.45
2018-12-01T18:59:25.077Z,17.42
2018-12-01T19:01:54.581Z,17.45
2018-12-01T19:04:24.686Z,17.47
2018-12-01T19:06:53.595Z,17.40
2018-12-01T19:09:22.727Z,17.50
2018-12-01T19:11:51.898Z,17.42
2018-12-01T19:14:22.063Z,17.36
2018-12-01T19:16:50.836Z,17.31
2018-12-01T19:20:47.317Z,17.38
2018-12-01T19:23:16.780Z,17.50
2018-12-01T19:25:47.210Z,17.50
2018-12-01T19:28:15.847Z,17.52
2018-12-01T19:30:47.293Z,17.48
2018-12-01T19:33:17.179Z,17.49
2018-12-01T19:35:48.374Z,17.50
2018-12-01T19:38:20.913Z,17.53
2018-12-01T19:44:15.911Z,17.56
2018-12-01T19:46:44.875Z,17.53
2018-12-01T19:49:13.307Z,17.57
2018-12-01T19:54:00.339Z,17.54
2018-12-01T19:56:29.532Z,17.62
2018-12-01T19:58:58.364Z,17.61
2018-12-01T20:01:27.165Z,17.62
2018-12-01T20:03:56.235Z,17.59
2018-12-01T20:06:25.517Z,17.56
2018-12-01T20:08:54.715Z,17.58
2018-12-01T20:11:23.263Z,17.61
2018-12-01T20:13:52.019Z,17.62
2018-12-01T20:16:23.296Z,17.60
2018-12-01T20:18:52.219Z,17.63
2018-12-01T20:21:22.144Z,17.63
2018-12-01T20:23:50.706Z,17.66
2018-12-01T20:26:19.304Z,17.63
2018-12-01T20:28:47.781Z,17.62
2018-12-01T20:31:16.435Z,17.61
2018-12-01T20:33:44.968Z,17.63
2018-12-01T20:36:15.379Z,17.64
2018-12-01T20:38:45.376Z,17.64
2018-12-01T20:41:13.951Z,17.65
2018-12-01T20:43:42.497Z,17.66
2018-12-01T20:46:11.199Z,17.68
2018-12-01T20:48:40.219Z,17.74
2018-12-01T20:51:11.886Z,17.68
2018-12-01T20:53:40.962Z,17.68
2018-12-01T20:56:10.791Z,17.73
2018-12-01T20:58:43.795Z,17.71
2018-12-01T21:01:12.390Z,17.74
2018-12-01T21:03:41.609Z,17.73
2018-12-01T21:06:12.311Z,17.70
2018-12-01T21:08:41.076Z,17.69
2018-12-01T21:11:13.439Z,17.71
2018-12-01T21:13:41.893Z,17.74
2018-12-01T21:16:10.849Z,17.81
2018-12-01T21:18:40.136Z,17.80
2018-12-01T21:21:09.475Z,17.82
2018-12-01T21:23:39.533Z,17.82
2018-12-01T21:26:09.102Z,17.86
2018-12-01T21:28:39.209Z,17.84
2018-12-01T21:31:09.077Z,17.81
2018-12-01T21:33:48.917Z,17.88
2018-12-01T21:36:18.216Z,17.85
2018-12-01T21:38:46.827Z,17.83
2018-12-01T21:41:17.015Z,17.85
2018-12-01T21:43:45.833Z,17.82
2018-12-01T21:46:15.347Z,17.82
2018-12-01T21:48:44.481Z,17.79
2018-12-01T21:51:13.216Z,17.80
2018-12-01T21:53:42.016Z,17.78
2018-12-01T21:56:10.788Z,17.78
2018-12-01T21:58:40.864Z,17.76
2018-12-01T22:01:10.852Z,17.73
2018-12-01T22:03:39.682Z,17.71
2018-12-01T22:06:09.665Z,17.69
2018-12-01T22:08:38.731Z,17.70
2018-12-01T22:11:08.928Z,17.70
2018-12-01T22:13:38.045Z,17.67
2018-12-01T22:16:08.657Z,17.64
2018-12-01T22:18:37.738Z,17.66
2018-12-01T22:21:06.755Z,17.64
2018-12-01T22:23:35.839Z,17.60
2018-12-01T22:26:04.679Z,17.61
2018-12-01T22:28:35.446Z,17.57
2018-12-01T22:31:02.734Z,17.55
2018-12-01T22:33:35.165Z,17.55
2018-12-01T22:36:04.202Z,17.54
2018-12-01T22:38:33.759Z,17.47
2018-12-01T22:41:04.314Z,17.46
2018-12-01T22:43:32.949Z,17.48
2018-12-01T22:46:01.451Z,17.48
2018-12-01T22:48:30.783Z,17.46
2018-12-01T22:50:59.459Z,17.44
2018-12-01T22:53:29.234Z,17.44
2018-12-01T22:55:57.870Z,17.43
2018-12-01T22:58:26.966Z,17.40
2018-12-01T23:00:59.898Z,17.41
2018-12-01T23:03:30.503Z,17.39
2018-12-01T23:05:59.366Z,17.38
2018-12-01T23:08:28.678Z,17.35
2018-12-01T23:10:57.669Z,17.31
2018-12-01T23:13:26.534Z,17.32
2018-12-01T23:15:55.159Z,17.32
2018-12-01T23:18:24.562Z,17.29
2018-12-01T23:20:53.872Z,17.25
2018-12-01T23:23:22.439Z,17.25
2018-12-01T23:25:51.203Z,17.25
2018-12-01T23:28:19.814Z,17.23
2018-12-01T23:30:50.757Z,17.24
2018-12-01T23:33:20.534Z,17.22
2018-12-01T23:35:49.426Z,17.21
2018-12-01T23:38:18.170Z,17.19
2018-12-01T23:40:46.854Z,17.18
2018-12-01T23:43:15.518Z,17.16
2018-12-01T23:45:45.080Z,17.18
2018-12-01T23:48:13.752Z,17.16
2018-12-01T23:50:43.281Z,17.14
2018-12-01T23:55:40.681Z,17.13
2018-12-01T23:58:09.233Z,17.11
